sensor_id;sensor_type;location;lat;lon;timestamp;pressure;altitude;pressure_sealevel;temperature;humidity
69749;BME280;57019;52.354;6.584;2022-11-15T00:00:41;100873.88;;;20.09;49.27
69749;BME280;57019;52.354;6.584;2022-11-15T00:03:06;100866.38;;;20.06;49.70
69749;BME280;57019;52.354;6.584;2022-11-15T00:05:35;100864.56;;;20.07;49.51
69749;BME280;57019;52.354;6.584;2022-11-15T00:08:01;100855.91;;;20.06;49.16
69749;BME280;57019;52.354;6.584;2022-11-15T00:10:27;100875.88;;;20.07;49.32
69749;BME280;57019;52.354;6.584;2022-11-15T00:12:53;100875.59;;;20.02;49.35
69749;BME280;57019;52.354;6.584;2022-11-15T00:15:18;100872.78;;;20.04;49.34
69749;BME280;57019;52.354;6.584;2022-11-15T00:17:44;100868.09;;;19.99;49.30
69749;BME280;57019;52.354;6.584;2022-11-15T00:20:10;100859.88;;;20.02;49.25
69749;BME280;57019;52.354;6.584;2022-11-15T00:22:36;100859.88;;;20.02;49.26
69749;BME280;57019;52.354;6.584;2022-11-15T00:25:02;100853.38;;;19.98;49.45
69749;BME280;57019;52.354;6.584;2022-11-15T00:27:28;100859.13;;;19.93;48.99
69749;BME280;57019;52.354;6.584;2022-11-15T00:29:53;100858.97;;;19.95;48.43
69749;BME280;57019;52.354;6.584;2022-11-15T00:32:19;100848.84;;;19.92;48.63
69749;BME280;57019;52.354;6.584;2022-11-15T00:34:46;100855.72;;;19.93;48.23
69749;BME280;57019;52.354;6.584;2022-11-15T00:37:11;100854.06;;;19.92;48.39
69749;BME280;57019;52.354;6.584;2022-11-15T00:39:36;100847.22;;;19.91;48.10
69749;BME280;57019;52.354;6.584;2022-11-15T00:42:02;100852.81;;;19.88;48.41
69749;BME280;57019;52.354;6.584;2022-11-15T00:44:27;100845.31;;;19.85;48.01
69749;BME280;57019;52.354;6.584;2022-11-15T00:46:52;100844.69;;;19.82;48.07
69749;BME280;57019;52.354;6.584;2022-11-15T00:49:18;100839.44;;;19.82;47.94
69749;BME280;57019;52.354;6.584;2022-11-15T00:51:43;100840.63;;;19.80;47.69
69749;BME280;57019;52.354;6.584;2022-11-15T00:54:09;100834.50;;;19.79;47.93
69749;BME280;57019;52.354;6.584;2022-11-15T00:56:34;100842.75;;;19.76;48.17
69749;BME280;57019;52.354;6.584;2022-11-15T00:58:59;100845.53;;;19.75;47.96
69749;BME280;57019;52.354;6.584;2022-11-15T01:01:25;100838.50;;;19.75;47.93
69749;BME280;57019;52.354;6.584;2022-11-15T01:03:50;100835.88;;;19.75;47.48
69749;BME280;57019;52.354;6.584;2022-11-15T01:06:15;100828.00;;;19.75;47.68
69749;BME280;57019;52.354;6.584;2022-11-15T01:08:41;100827.38;;;19.73;47.58
69749;BME280;57019;52.354;6.584;2022-11-15T01:11:09;100824.78;;;19.73;47.70
69749;BME280;57019;52.354;6.584;2022-11-15T01:13:43;100823.13;;;19.72;47.45
69749;BME280;57019;52.354;6.584;2022-11-15T01:16:14;100816.63;;;19.68;47.51
69749;BME280;57019;52.354;6.584;2022-11-15T01:18:40;100816.63;;;19.68;47.63
69749;BME280;57019;52.354;6.584;2022-11-15T01:21:10;100816.63;;;19.68;47.28
69749;BME280;57019;52.354;6.584;2022-11-15T01:23:36;100811.38;;;19.68;47.16
69749;BME280;57019;52.354;6.584;2022-11-15T01:26:04;100813.19;;;19.67;47.48
69749;BME280;57019;52.354;6.584;2022-11-15T01:28:32;100809.13;;;19.65;47.36
69749;BME280;57019;52.354;6.584;2022-11-15T01:31:02;100805.69;;;19.64;47.19
69749;BME280;57019;52.354;6.584;2022-11-15T01:33:28;100803.25;;;19.63;47.24
69749;BME280;57019;52.354;6.584;2022-11-15T01:35:54;100801.63;;;19.62;47.31
69749;BME280;57019;52.354;6.584;2022-11-15T01:38:20;100800.00;;;19.61;47.07
69749;BME280;57019;52.354;6.584;2022-11-15T01:40:46;100791.50;;;19.59;47.29
69749;BME280;57019;52.354;6.584;2022-11-15T01:43:24;100793.13;;;19.60;47.33
69749;BME280;57019;52.354;6.584;2022-11-15T01:45:54;100784.66;;;19.58;47.13
69749;BME280;57019;52.354;6.584;2022-11-15T01:48:25;100789.06;;;19.57;47.22
69749;BME280;57019;52.354;6.584;2022-11-15T01:50:54;100789.91;;;19.58;47.36
69749;BME280;57019;52.354;6.584;2022-11-15T01:53:21;100786.63;;;19.56;47.04
69749;BME280;57019;52.354;6.584;2022-11-15T01:55:48;100779.75;;;19.55;47.00
69749;BME280;57019;52.354;6.584;2022-11-15T01:58:14;100781.38;;;19.56;47.22
69749;BME280;57019;52.354;6.584;2022-11-15T02:00:40;100785.00;;;19.55;47.01
69749;BME280;57019;52.354;6.584;2022-11-15T02:03:05;100778.31;;;19.52;47.06
69749;BME280;57019;52.354;6.584;2022-11-15T02:05:31;100774.88;;;19.52;47.26
69749;BME280;57019;52.354;6.584;2022-11-15T02:07:57;100777.69;;;19.50;46.99
69749;BME280;57019;52.354;6.584;2022-11-15T02:10:24;100763.78;;;19.49;47.14
69749;BME280;57019;52.354;6.584;2022-11-15T02:12:50;100773.63;;;19.47;47.19
69749;BME280;57019;52.354;6.584;2022-11-15T02:15:18;100757.28;;;19.45;47.23
69749;BME280;57019;52.354;6.584;2022-11-15T02:18:18;100758.88;;;19.46;47.23
69749;BME280;57019;52.354;6.584;2022-11-15T02:21:01;100761.50;;;19.46;47.13
69749;BME280;57019;52.354;6.584;2022-11-15T02:39:51;100760.59;;;19.39;47.21
69749;BME280;57019;52.354;6.584;2022-11-15T02:42:21;100756.34;;;19.38;47.23
69749;BME280;57019;52.354;6.584;2022-11-15T02:45:13;100759.16;;;19.37;47.30
69749;BME280;57019;52.354;6.584;2022-11-15T02:47:43;100762.94;;;19.34;47.49
69749;BME280;57019;52.354;6.584;2022-11-15T02:50:15;100765.53;;;19.34;47.31
69749;BME280;57019;52.354;6.584;2022-11-15T02:52:48;100762.31;;;19.32;47.37
69749;BME280;57019;52.354;6.584;2022-11-15T03:01:22;100748.25;;;19.33;47.48
69749;BME280;57019;52.354;6.584;2022-11-15T03:04:12;100739.72;;;19.31;47.51
69749;BME280;57019;52.354;6.584;2022-11-15T03:06:51;100740.72;;;19.30;47.29
69749;BME280;57019;52.354;6.584;2022-11-15T03:09:28;100739.13;;;19.29;47.43
69749;BME280;57019;52.354;6.584;2022-11-15T03:12:11;100733.03;;;19.28;47.39
69749;BME280;57019;52.354;6.584;2022-11-15T03:14:53;100743.06;;;19.25;47.69
69749;BME280;57019;52.354;6.584;2022-11-15T03:17:30;100734.22;;;19.26;47.41
69749;BME280;57019;52.354;6.584;2022-11-15T03:20:01;100723.75;;;19.26;47.55
69749;BME280;57019;52.354;6.584;2022-11-15T03:22:32;100723.75;;;19.26;47.58
69749;BME280;57019;52.354;6.584;2022-11-15T03:25:00;100727.38;;;19.25;47.60
69749;BME280;57019;52.354;6.584;2022-11-15T03:27:31;100721.50;;;19.23;47.35
69749;BME280;57019;52.354;6.584;2022-11-15T03:30:04;100707.78;;;19.21;47.61
69749;BME280;57019;52.354;6.584;2022-11-15T03:32:34;100699.09;;;19.20;47.38
69749;BME280;57019;52.354;6.584;2022-11-15T03:35:05;100714.00;;;19.20;47.48
69749;BME280;57019;52.354;6.584;2022-11-15T03:37:54;100715.63;;;19.21;47.75
69749;BME280;57019;52.354;6.584;2022-11-15T03:40:25;100716.97;;;19.17;47.65
69749;BME280;57019;52.354;6.584;2022-11-15T03:43:03;100709.13;;;19.17;47.83
69749;BME280;57019;52.354;6.584;2022-11-15T03:45:36;100715.16;;;19.17;47.66
69749;BME280;57019;52.354;6.584;2022-11-15T03:48:12;100713.53;;;19.16;47.92
69749;BME280;57019;52.354;6.584;2022-11-15T03:50:39;100714.69;;;19.13;47.95
69749;BME280;57019;52.354;6.584;2022-11-15T03:53:05;100717.50;;;19.12;47.72
69749;BME280;57019;52.354;6.584;2022-11-15T03:55:32;100715.72;;;19.12;47.86
69749;BME280;57019;52.354;6.584;2022-11-15T03:57:59;100708.19;;;19.09;47.87
69749;BME280;57019;52.354;6.584;2022-11-15T04:00:25;100707.03;;;19.12;47.96
69749;BME280;57019;52.354;6.584;2022-11-15T04:02:50;100702.63;;;19.12;47.82
69749;BME280;57019;52.354;6.584;2022-11-15T04:05:15;100704.59;;;19.10;47.71
69749;BME280;57019;52.354;6.584;2022-11-15T04:07:41;100698.56;;;19.10;47.83
69749;BME280;57019;52.354;6.584;2022-11-15T04:10:07;100699.34;;;19.10;48.08
69749;BME280;57019;52.354;6.584;2022-11-15T04:12:35;100706.59;;;19.08;47.88
69749;BME280;57019;52.354;6.584;2022-11-15T04:15:09;100702.97;;;19.09;47.91
69749;BME280;57019;52.354;6.584;2022-11-15T04:17:49;100707.75;;;19.06;48.04
69749;BME280;57019;52.354;6.584;2022-11-15T04:20:17;100715.41;;;19.07;48.12
69749;BME280;57019;52.354;6.584;2022-11-15T04:23:04;100715.78;;;19.04;47.89
69749;BME280;57019;52.354;6.584;2022-11-15T04:25:51;100714.16;;;19.03;48.11
69749;BME280;57019;52.354;6.584;2022-11-15T04:28:17;100708.91;;;19.03;48.15
69749;BME280;57019;52.354;6.584;2022-11-15T04:30:43;100700.41;;;19.01;48.06
69749;BME280;57019;52.354;6.584;2022-11-15T04:33:08;100704.47;;;19.04;48.26
69749;BME280;57019;52.354;6.584;2022-11-15T04:35:34;100709.09;;;19.02;48.21
69749;BME280;57019;52.354;6.584;2022-11-15T04:38:01;100715.84;;;18.96;48.59
69749;BME280;57019;52.354;6.584;2022-11-15T04:40:27;100729.56;;;18.98;48.24
69749;BME280;57019;52.354;6.584;2022-11-15T04:42:52;100724.31;;;18.98;48.46
69749;BME280;57019;52.354;6.584;2022-11-15T04:45:18;100726.47;;;18.94;48.22
69749;BME280;57019;52.354;6.584;2022-11-15T04:47:44;100724.50;;;18.96;48.38
69749;BME280;57019;52.354;6.584;2022-11-15T04:50:10;100727.31;;;18.95;48.58
69749;BME280;57019;52.354;6.584;2022-11-15T04:52:42;100723.72;;;18.96;48.36
69749;BME280;57019;52.354;6.584;2022-11-15T04:55:09;100724.69;;;18.95;48.36
69749;BME280;57019;52.354;6.584;2022-11-15T04:57:36;100724.69;;;18.95;48.30
69749;BME280;57019;52.354;6.584;2022-11-15T05:00:07;100730.91;;;18.94;48.44
69749;BME280;57019;52.354;6.584;2022-11-15T05:02:34;100730.09;;;18.93;48.39
69749;BME280;57019;52.354;6.584;2022-11-15T05:05:18;100734.06;;;18.89;48.78
69749;BME280;57019;52.354;6.584;2022-11-15T05:07:44;100731.63;;;18.88;48.62
69749;BME280;57019;52.354;6.584;2022-11-15T05:10:09;100727.53;;;18.85;48.69
69749;BME280;57019;52.354;6.584;2022-11-15T05:12:35;100717.84;;;18.86;49.01
69749;BME280;57019;52.354;6.584;2022-11-15T05:15:00;100722.09;;;18.87;48.76
69749;BME280;57019;52.354;6.584;2022-11-15T05:17:26;100721.16;;;18.88;48.75
69749;BME280;57019;52.354;6.584;2022-11-15T05:19:52;100722.75;;;18.89;48.67
69749;BME280;57019;52.354;6.584;2022-11-15T05:22:19;100719.50;;;18.87;48.85
69749;BME280;57019;52.354;6.584;2022-11-15T05:24:44;100713.94;;;18.90;48.71
69749;BME280;57019;52.354;6.584;2022-11-15T05:27:10;100707.53;;;18.92;48.62
69749;BME280;57019;52.354;6.584;2022-11-15T05:29:35;100705.53;;;18.94;48.56
69749;BME280;57019;52.354;6.584;2022-11-15T05:32:00;100704.75;;;18.94;48.61
69749;BME280;57019;52.354;6.584;2022-11-15T05:34:26;100707.53;;;18.92;48.90
69749;BME280;57019;52.354;6.584;2022-11-15T05:36:52;100707.66;;;18.99;48.65
69749;BME280;57019;52.354;6.584;2022-11-15T05:39:17;100703.03;;;19.01;48.77
69749;BME280;57019;52.354;6.584;2022-11-15T05:41:46;100698.38;;;19.11;48.70
69749;BME280;57019;52.354;6.584;2022-11-15T05:44:22;100697.94;;;19.23;48.40
69749;BME280;57019;52.354;6.584;2022-11-15T05:46:49;100693.25;;;19.33;48.54
69749;BME280;57019;52.354;6.584;2022-11-15T05:49:17;100701.47;;;19.45;48.48
69749;BME280;57019;52.354;6.584;2022-11-15T05:51:44;100697.22;;;19.59;48.05
69749;BME280;57019;52.354;6.584;2022-11-15T05:54:11;100707.41;;;19.69;48.15
69749;BME280;57019;52.354;6.584;2022-11-15T05:56:37;100704.19;;;19.81;48.18
69749;BME280;57019;52.354;6.584;2022-11-15T05:59:02;100702.47;;;19.89;48.39
69749;BME280;57019;52.354;6.584;2022-11-15T06:01:28;100705.34;;;19.94;48.42
69749;BME280;57019;52.354;6.584;2022-11-15T06:03:53;100713.09;;;20.02;48.26
69749;BME280;57019;52.354;6.584;2022-11-15T06:06:19;100704.94;;;20.12;48.02
69749;BME280;57019;52.354;6.584;2022-11-15T06:08:45;100702.41;;;20.19;48.03
69749;BME280;57019;52.354;6.584;2022-11-15T06:11:12;100704.91;;;20.27;48.18
69749;BME280;57019;52.354;6.584;2022-11-15T06:13:40;100720.94;;;20.39;47.67
69749;BME280;57019;52.354;6.584;2022-11-15T06:16:06;100711.16;;;20.47;47.58
69749;BME280;57019;52.354;6.584;2022-11-15T06:18:35;100718.69;;;20.36;47.97
69749;BME280;57019;52.354;6.584;2022-11-15T06:21:01;100713.66;;;20.34;48.21
69749;BME280;57019;52.354;6.584;2022-11-15T06:23:27;100715.88;;;20.37;48.12
69749;BME280;57019;52.354;6.584;2022-11-15T06:25:52;100719.34;;;20.38;48.24
69749;BME280;57019;52.354;6.584;2022-11-15T06:28:18;100711.81;;;20.34;48.52
69749;BME280;57019;52.354;6.584;2022-11-15T06:30:43;100713.38;;;20.29;48.51
69749;BME280;57019;52.354;6.584;2022-11-15T06:33:08;100709.31;;;20.26;48.78
69749;BME280;57019;52.354;6.584;2022-11-15T06:35:35;100710.53;;;20.24;48.58
69749;BME280;57019;52.354;6.584;2022-11-15T06:38:09;100722.63;;;20.25;48.54
69749;BME280;57019;52.354;6.584;2022-11-15T06:40:36;100717.63;;;20.30;48.76
69749;BME280;57019;52.354;6.584;2022-11-15T06:43:04;100723.88;;;20.29;48.54
69749;BME280;57019;52.354;6.584;2022-11-15T06:45:30;100724.94;;;20.34;48.73
69749;BME280;57019;52.354;6.584;2022-11-15T06:47:57;100729.25;;;20.42;48.73
69749;BME280;57019;52.354;6.584;2022-11-15T06:50:23;100733.78;;;20.48;48.56
69749;BME280;57019;52.354;6.584;2022-11-15T06:52:50;100734.66;;;20.56;48.37
69749;BME280;57019;52.354;6.584;2022-11-15T06:55:16;100735.53;;;20.63;48.07
69749;BME280;57019;52.354;6.584;2022-11-15T06:57:48;100745.03;;;20.64;48.33
69749;BME280;57019;52.354;6.584;2022-11-15T07:00:14;100740.16;;;20.61;48.18
69749;BME280;57019;52.354;6.584;2022-11-15T07:02:40;100744.38;;;20.62;48.53
69749;BME280;57019;52.354;6.584;2022-11-15T07:05:05;100745.56;;;20.59;48.25
69749;BME280;57019;52.354;6.584;2022-11-15T07:07:31;100757.28;;;20.57;48.35
69749;BME280;57019;52.354;6.584;2022-11-15T07:09:57;100757.00;;;20.51;48.61
69749;BME280;57019;52.354;6.584;2022-11-15T07:12:24;100771.13;;;20.50;49.03
69749;BME280;57019;52.354;6.584;2022-11-15T07:14:49;100761.72;;;20.41;49.20
69749;BME280;57019;52.354;6.584;2022-11-15T07:17:15;100762.75;;;20.40;49.16
69749;BME280;57019;52.354;6.584;2022-11-15T07:19:45;100760.47;;;20.37;49.38
69749;BME280;57019;52.354;6.584;2022-11-15T07:22:11;100761.84;;;20.33;49.31
69749;BME280;57019;52.354;6.584;2022-11-15T07:24:36;100756.34;;;20.28;49.55
69749;BME280;57019;52.354;6.584;2022-11-15T07:27:02;100760.50;;;20.22;49.50
69749;BME280;57019;52.354;6.584;2022-11-15T07:29:28;100762.06;;;20.16;49.87
69749;BME280;57019;52.354;6.584;2022-11-15T07:31:53;100763.78;;;20.09;49.85
69749;BME280;57019;52.354;6.584;2022-11-15T07:34:19;100755.84;;;20.03;49.98
69749;BME280;57019;52.354;6.584;2022-11-15T07:36:44;100756.13;;;19.93;50.11
69749;BME280;57019;52.354;6.584;2022-11-15T07:39:10;100754.06;;;19.88;50.34
69749;BME280;57019;52.354;6.584;2022-11-15T07:41:38;100752.91;;;19.91;50.12
69749;BME280;57019;52.354;6.584;2022-11-15T07:44:04;100753.13;;;19.96;50.15
69749;BME280;57019;52.354;6.584;2022-11-15T07:46:29;100750.16;;;19.99;49.96
69749;BME280;57019;52.354;6.584;2022-11-15T07:48:55;100761.00;;;19.96;50.24
69749;BME280;57019;52.354;6.584;2022-11-15T07:51:20;100763.63;;;19.96;49.94
69749;BME280;57019;52.354;6.584;2022-11-15T07:53:45;100759.72;;;19.92;49.94
69749;BME280;57019;52.354;6.584;2022-11-15T07:56:11;100765.34;;;19.89;50.36
69749;BME280;57019;52.354;6.584;2022-11-15T07:58:36;100763.72;;;19.88;50.38
69749;BME280;57019;52.354;6.584;2022-11-15T08:01:06;100769.31;;;19.85;50.47
69749;BME280;57019;52.354;6.584;2022-11-15T08:03:32;100758.38;;;19.81;50.53
69749;BME280;57019;52.354;6.584;2022-11-15T08:05:58;100760.53;;;19.77;50.53
69749;BME280;57019;52.354;6.584;2022-11-15T08:08:24;100757.09;;;19.77;50.49
69749;BME280;57019;52.354;6.584;2022-11-15T08:10:49;100766.94;;;19.75;50.36
69749;BME280;57019;52.354;6.584;2022-11-15T08:13:16;100762.25;;;19.70;50.77
69749;BME280;57019;52.354;6.584;2022-11-15T08:15:41;100758.38;;;19.66;50.77
69749;BME280;57019;52.354;6.584;2022-11-15T08:18:15;100762.78;;;19.65;50.63
69749;BME280;57019;52.354;6.584;2022-11-15T08:20:42;100759.72;;;19.62;50.67
69749;BME280;57019;52.354;6.584;2022-11-15T08:23:10;100759.88;;;19.60;50.92
69749;BME280;57019;52.354;6.584;2022-11-15T08:25:38;100751.22;;;19.60;50.69
69749;BME280;57019;52.354;6.584;2022-11-15T08:28:07;100751.22;;;19.60;50.62
69749;BME280;57019;52.354;6.584;2022-11-15T08:30:38;100748.00;;;19.58;50.70
69749;BME280;57019;52.354;6.584;2022-11-15T08:33:04;100743.75;;;19.57;50.83
69749;BME280;57019;52.354;6.584;2022-11-15T08:35:30;100749.97;;;19.56;50.67
69749;BME280;57019;52.354;6.584;2022-11-15T08:37:55;100743.09;;;19.55;50.69
69749;BME280;57019;52.354;6.584;2022-11-15T08:40:21;100744.09;;;19.54;50.58
69749;BME280;57019;52.354;6.584;2022-11-15T08:42:47;100741.47;;;19.54;50.61
69749;BME280;57019;52.354;6.584;2022-11-15T08:45:13;100739.03;;;19.52;50.69
69749;BME280;57019;52.354;6.584;2022-11-15T08:47:38;100733.34;;;19.48;50.80
69749;BME280;57019;52.354;6.584;2022-11-15T08:50:04;100734.53;;;19.46;51.03
69749;BME280;57019;52.354;6.584;2022-11-15T08:52:29;100734.69;;;19.44;50.88
69749;BME280;57019;52.354;6.584;2022-11-15T08:54:55;100735.69;;;19.43;51.10
69749;BME280;57019;52.354;6.584;2022-11-15T08:57:20;100732.44;;;19.41;51.13
69749;BME280;57019;52.354;6.584;2022-11-15T08:59:45;100734.22;;;19.41;50.95
69749;BME280;57019;52.354;6.584;2022-11-15T09:02:12;100734.41;;;19.39;51.07
69749;BME280;57019;52.354;6.584;2022-11-15T09:04:42;100733.63;;;19.39;51.23
69749;BME280;57019;52.354;6.584;2022-11-15T09:07:09;100733.16;;;19.35;51.40
69749;BME280;57019;52.354;6.584;2022-11-15T09:09:34;100736.75;;;19.34;51.13
69749;BME280;57019;52.354;6.584;2022-11-15T09:11:59;100727.91;;;19.35;51.10
69749;BME280;57019;52.354;6.584;2022-11-15T09:14:25;100726.28;;;19.34;51.25
69749;BME280;57019;52.354;6.584;2022-11-15T09:16:50;100718.59;;;19.32;51.29
69749;BME280;57019;52.354;6.584;2022-11-15T09:19:15;100716.97;;;19.31;51.25
69749;BME280;57019;52.354;6.584;2022-11-15T09:21:41;100721.41;;;19.31;51.29
69749;BME280;57019;52.354;6.584;2022-11-15T09:24:06;100707.06;;;19.27;51.43
69749;BME280;57019;52.354;6.584;2022-11-15T09:26:32;100711.47;;;19.26;51.51
69749;BME280;57019;52.354;6.584;2022-11-15T09:28:57;100704.44;;;19.27;51.56
69749;BME280;57019;52.354;6.584;2022-11-15T09:31:24;100706.06;;;19.28;51.21
69749;BME280;57019;52.354;6.584;2022-11-15T09:33:49;100714.09;;;19.26;51.36
69749;BME280;57019;52.354;6.584;2022-11-15T09:36:15;100715.28;;;19.24;51.48
69749;BME280;57019;52.354;6.584;2022-11-15T09:38:41;100708.41;;;19.23;51.36
69749;BME280;57019;52.354;6.584;2022-11-15T09:48:59;100732.31;;;19.20;51.71
69749;BME280;57019;52.354;6.584;2022-11-15T09:56:44;100733.00;;;19.13;51.72
69749;BME280;57019;52.354;6.584;2022-11-15T10:04:14;100725.81;;;19.15;51.83
69749;BME280;57019;52.354;6.584;2022-11-15T10:06:45;100718.75;;;19.16;51.76
69749;BME280;57019;52.354;6.584;2022-11-15T10:09:20;100715.34;;;19.15;51.74
69749;BME280;57019;52.354;6.584;2022-11-15T10:11:49;100718.59;;;19.18;51.87
69749;BME280;57019;52.354;6.584;2022-11-15T10:14:26;100720.59;;;19.15;51.75
69749;BME280;57019;52.354;6.584;2022-11-15T10:22:45;100716.69;;;19.11;51.88
69749;BME280;57019;52.354;6.584;2022-11-15T10:27:43;100707.84;;;19.12;51.73
69749;BME280;57019;52.354;6.584;2022-11-15T10:30:16;100711.47;;;19.11;51.95
69749;BME280;57019;52.354;6.584;2022-11-15T10:32:44;100697.38;;;19.12;51.90
69749;BME280;57019;52.354;6.584;2022-11-15T10:35:28;100709.81;;;19.10;51.81
69749;BME280;57019;52.354;6.584;2022-11-15T10:38:08;100703.78;;;19.10;51.75
69749;BME280;57019;52.354;6.584;2022-11-15T10:40:34;100692.16;;;19.12;51.89
69749;BME280;57019;52.354;6.584;2022-11-15T10:45:32;100680.06;;;19.11;51.68
69749;BME280;57019;52.354;6.584;2022-11-15T10:50:45;100672.03;;;19.13;51.61
69749;BME280;57019;52.354;6.584;2022-11-15T10:53:19;100667.94;;;19.10;51.82
69749;BME280;57019;52.354;6.584;2022-11-15T10:55:47;100655.84;;;19.09;52.00
69749;BME280;57019;52.354;6.584;2022-11-15T10:58:37;100651.63;;;19.08;51.75
69749;BME280;57019;52.354;6.584;2022-11-15T11:01:16;100657.47;;;19.10;51.54
69749;BME280;57019;52.354;6.584;2022-11-15T11:03:44;100655.66;;;19.11;51.71
69749;BME280;57019;52.354;6.584;2022-11-15T11:06:15;100652.06;;;19.12;51.62
69749;BME280;57019;52.354;6.584;2022-11-15T11:09:01;100649.00;;;19.08;51.96
69749;BME280;57019;52.354;6.584;2022-11-15T11:11:48;100659.47;;;19.08;51.98
69749;BME280;57019;52.354;6.584;2022-11-15T11:16:52;100646.56;;;19.07;51.92
69749;BME280;57019;52.354;6.584;2022-11-15T11:19:46;100647.38;;;19.07;51.95
69749;BME280;57019;52.354;6.584;2022-11-15T11:22:25;100634.91;;;19.09;51.60
69749;BME280;57019;52.354;6.584;2022-11-15T11:25:18;100634.81;;;19.03;52.03
69749;BME280;57019;52.354;6.584;2022-11-15T11:28:05;100632.03;;;19.04;51.74
69749;BME280;57019;52.354;6.584;2022-11-15T11:30:51;100642.50;;;19.04;51.89
69749;BME280;57019;52.354;6.584;2022-11-15T11:33:32;100635.66;;;19.03;51.90
69749;BME280;57019;52.354;6.584;2022-11-15T11:38:49;100616.34;;;19.04;51.96
69749;BME280;57019;52.354;6.584;2022-11-15T11:41:39;100613.09;;;19.02;52.06
69749;BME280;57019;52.354;6.584;2022-11-15T11:46:59;100615.06;;;19.00;51.93
69749;BME280;57019;52.354;6.584;2022-11-15T11:49:46;100599.19;;;19.02;52.06
69749;BME280;57019;52.354;6.584;2022-11-15T11:52:17;100606.22;;;19.01;52.09
69749;BME280;57019;52.354;6.584;2022-11-15T11:55:02;100606.22;;;19.01;52.05
69749;BME280;57019;52.354;6.584;2022-11-15T12:00:49;100608.22;;;18.99;51.99
69749;BME280;57019;52.354;6.584;2022-11-15T12:05:57;100606.41;;;18.99;51.94
69749;BME280;57019;52.354;6.584;2022-11-15T12:08:41;100607.84;;;19.02;51.86
69749;BME280;57019;52.354;6.584;2022-11-15T12:11:37;100604.44;;;19.02;51.97
69749;BME280;57019;52.354;6.584;2022-11-15T12:14:16;100601.34;;;18.98;51.99
69749;BME280;57019;52.354;6.584;2022-11-15T12:16:45;100607.22;;;19.00;51.80
69749;BME280;57019;52.354;6.584;2022-11-15T12:19:10;100597.75;;;18.99;51.91
69749;BME280;57019;52.354;6.584;2022-11-15T12:24:21;100602.16;;;18.98;51.85
69749;BME280;57019;52.354;6.584;2022-11-15T12:29:54;100585.19;;;19.09;52.50
69749;BME280;57019;52.354;6.584;2022-11-15T12:32:29;100586.38;;;19.22;52.54
69749;BME280;57019;52.354;6.584;2022-11-15T12:34:56;100588.78;;;19.38;52.01
69749;BME280;57019;52.354;6.584;2022-11-15T12:44:59;100586.44;;;19.95;50.99
69749;BME280;57019;52.354;6.584;2022-11-15T12:47:26;100579.25;;;20.04;50.83
69749;BME280;57019;52.354;6.584;2022-11-15T12:49:52;100575.25;;;20.08;50.51
69749;BME280;57019;52.354;6.584;2022-11-15T12:52:18;100571.06;;;20.13;50.40
69749;BME280;57019;52.354;6.584;2022-11-15T12:54:51;100567.66;;;20.13;50.29
69749;BME280;57019;52.354;6.584;2022-11-15T12:59:57;100552.28;;;20.10;50.30
69749;BME280;57019;52.354;6.584;2022-11-15T13:17:49;100522.34;;;19.97;50.58
69749;BME280;57019;52.354;6.584;2022-11-15T13:30:38;100511.66;;;20.21;49.99
69749;BME280;57019;52.354;6.584;2022-11-15T13:33:10;100497.41;;;20.30;50.17
69749;BME280;57019;52.354;6.584;2022-11-15T13:35:39;100497.25;;;20.38;49.70
69749;BME280;57019;52.354;6.584;2022-11-15T13:38:06;100486.00;;;20.44;49.67
69749;BME280;57019;52.354;6.584;2022-11-15T13:40:36;100481.56;;;20.45;49.31
69749;BME280;57019;52.354;6.584;2022-11-15T13:43:32;100486.19;;;20.43;49.33
69749;BME280;57019;52.354;6.584;2022-11-15T13:46:18;100479.34;;;20.42;49.73
69749;BME280;57019;52.354;6.584;2022-11-15T13:48:45;100467.41;;;20.39;49.65
69749;BME280;57019;52.354;6.584;2022-11-15T13:53:46;100472.84;;;20.38;49.54
69749;BME280;57019;52.354;6.584;2022-11-15T13:56:15;100466.56;;;20.32;49.61
69749;BME280;57019;52.354;6.584;2022-11-15T13:58:41;100460.88;;;20.28;49.94
69749;BME280;57019;52.354;6.584;2022-11-15T14:01:15;100462.88;;;20.26;49.90
69749;BME280;57019;52.354;6.584;2022-11-15T14:03:50;100469.50;;;20.22;50.03
69749;BME280;57019;52.354;6.584;2022-11-15T14:06:20;100465.66;;;20.18;50.08
69749;BME280;57019;52.354;6.584;2022-11-15T14:11:36;100465.00;;;20.09;50.33
69749;BME280;57019;52.354;6.584;2022-11-15T14:16:36;100460.75;;;20.08;50.68
69749;BME280;57019;52.354;6.584;2022-11-15T14:19:03;100466.81;;;20.09;50.82
69749;BME280;57019;52.354;6.584;2022-11-15T14:21:29;100457.72;;;20.05;50.75
69749;BME280;57019;52.354;6.584;2022-11-15T14:24:18;100454.66;;;20.01;50.51
69749;BME280;57019;52.354;6.584;2022-11-15T14:26:44;100444.34;;;19.99;50.72
69749;BME280;57019;52.354;6.584;2022-11-15T14:29:26;100455.44;;;20.02;50.57
69749;BME280;57019;52.354;6.584;2022-11-15T14:31:53;100449.66;;;20.06;50.50
69749;BME280;57019;52.354;6.584;2022-11-15T14:34:19;100454.50;;;20.09;50.65
69749;BME280;57019;52.354;6.584;2022-11-15T14:36:47;100451.50;;;20.12;50.54
69749;BME280;57019;52.354;6.584;2022-11-15T14:39:12;100443.06;;;20.17;50.23
69749;BME280;57019;52.354;6.584;2022-11-15T14:41:38;100425.78;;;20.23;50.49
69749;BME280;57019;52.354;6.584;2022-11-15T14:44:06;100432.25;;;20.27;50.05
69749;BME280;57019;52.354;6.584;2022-11-15T14:46:33;100428.63;;;20.28;50.10
69749;BME280;57019;52.354;6.584;2022-11-15T14:48:58;100429.81;;;20.25;50.17
69749;BME280;57019;52.354;6.584;2022-11-15T14:51:23;100418.69;;;20.23;50.15
69749;BME280;57019;52.354;6.584;2022-11-15T14:53:49;100412.66;;;20.23;50.20
69749;BME280;57019;52.354;6.584;2022-11-15T14:56:15;100420.53;;;20.23;50.39
69749;BME280;57019;52.354;6.584;2022-11-15T14:58:41;100410.66;;;20.25;49.99